Time;durP1;ratioP1;P1;durP2;ratioP2;P2;SDS_P1;SDS_P2;PMS_P1;PMS_P2;Temp;Humidity;BMP_temperature;BMP_pressure;BME280_temperature;BME280_humidity;BME280_pressure;Samples;Min_cycle;Max_cycle;Signal;HPM_P1;HPM_P2
2023/10/23 00:02:23;;;;;;;17.50;3.80;;;;;;;14.35;59.83;100793.77;107628;1253;97867;-62
2023/10/23 00:04:51;;;;;;;13.10;3.10;;;;;;;14.29;60.01;100792.98;107645;1250;110676;-61
2023/10/23 00:07:19;;;;;;;11.90;3.00;;;;;;;14.31;59.86;100794.39;107466;1250;110937;-61
2023/10/23 00:09:47;;;;;;;11.40;2.50;;;;;;;14.40;59.76;100800.28;107489;1256;109077;-62
2023/10/23 00:12:16;;;;;;;8.40;2.70;;;;;;;14.47;59.42;100796.13;107420;1253;98094;-63
2023/10/23 00:14:44;;;;;;;8.50;2.40;;;;;;;14.54;59.13;100796.63;107474;1253;98381;-62
2023/10/23 00:17:12;;;;;;;13.30;2.80;;;;;;;14.59;58.92;100794.70;107529;1251;111921;-62
2023/10/23 00:19:40;;;;;;;9.20;2.30;;;;;;;14.64;58.75;100792.90;107596;1253;109858;-63
2023/10/23 00:22:09;;;;;;;6.50;2.70;;;;;;;14.69;58.60;100790.41;107655;1253;108627;-63
2023/10/23 00:24:37;;;;;;;12.80;2.90;;;;;;;14.71;58.43;100787.52;107608;1252;98493;-61
2023/10/23 00:27:06;;;;;;;8.90;2.90;;;;;;;14.72;58.30;100789.06;107688;1253;97734;-66
2023/10/23 00:29:35;;;;;;;12.50;3.20;;;;;;;14.72;58.25;100792.85;107484;1251;111302;-61
2023/10/23 00:32:05;;;;;;;7.50;2.30;;;;;;;14.72;58.25;100794.83;107467;1253;108854;-61
2023/10/23 00:34:33;;;;;;;15.40;3.60;;;;;;;14.75;58.18;100797.48;107578;1253;107102;-62
2023/10/23 00:37:01;;;;;;;13.20;3.00;;;;;;;14.73;57.99;100796.70;107377;1253;97853;-62
2023/10/23 00:39:29;;;;;;;13.20;2.40;;;;;;;14.71;58.12;100802.36;107491;1257;98167;-61
2023/10/23 00:41:57;;;;;;;10.80;2.90;;;;;;;14.68;58.01;100801.67;107488;1253;111199;-62
2023/10/23 00:44:27;;;;;;;15.40;3.00;;;;;;;14.67;57.97;100806.02;107449;1253;108845;-63
2023/10/23 00:46:56;;;;;;;14.80;2.50;;;;;;;14.68;58.35;100809.89;107442;1253;107240;-62
2023/10/23 00:49:25;;;;;;;10.30;2.90;;;;;;;14.71;58.14;100809.54;107463;1253;97837;-62
2023/10/23 00:51:54;;;;;;;12.80;2.20;;;;;;;14.75;57.98;100806.10;107439;1253;97884;-63
2023/10/23 00:54:23;;;;;;;15.10;3.10;;;;;;;14.76;58.01;100813.32;107464;1253;112374;-63
2023/10/23 00:56:53;;;;;;;11.20;2.50;;;;;;;14.78;57.97;100811.33;107684;1251;109680;-61
2023/10/23 00:59:22;;;;;;;13.20;3.40;;;;;;;14.80;57.94;100813.66;107531;1253;107062;-62
2023/10/23 01:01:50;;;;;;;12.30;3.00;;;;;;;14.81;57.95;100811.74;107421;1251;97738;-61
2023/10/23 01:04:19;;;;;;;14.80;2.70;;;;;;;14.82;57.92;100814.36;107427;1253;97923;-62
2023/10/23 01:06:50;;;;;;;14.30;2.40;;;;;;;14.80;57.80;100811.84;107592;1253;112061;-61
2023/10/23 01:09:18;;;;;;;14.50;2.70;;;;;;;14.79;57.83;100812.14;107674;1253;110027;-61
2023/10/23 01:11:46;;;;;;;7.20;2.60;;;;;;;14.77;57.59;100810.04;107604;1251;108017;-62
2023/10/23 01:14:15;;;;;;;13.20;2.70;;;;;;;14.76;57.88;100815.35;107572;1251;97815;-63
2023/10/23 01:16:43;;;;;;;12.40;2.00;;;;;;;14.80;58.04;100814.45;107635;1250;98344;-63
2023/10/23 01:19:11;;;;;;;10.80;2.30;;;;;;;14.82;58.01;100815.40;107655;1250;110550;-62
2023/10/23 01:21:39;;;;;;;15.80;2.50;;;;;;;14.84;58.13;100819.20;107564;1251;109206;-63
2023/10/23 01:24:11;;;;;;;7.70;2.30;;;;;;;14.83;57.98;100824.05;107636;1253;107842;-62
2023/10/23 01:26:39;;;;;;;13.70;2.80;;;;;;;14.79;58.12;100827.80;107597;1251;98299;-62
2023/10/23 01:29:07;;;;;;;11.80;2.60;;;;;;;14.79;58.54;100832.34;107612;1255;97868;-63
2023/10/23 01:31:36;;;;;;;7.80;2.30;;;;;;;14.79;58.66;100837.43;107631;1252;111206;-63
2023/10/23 01:34:06;;;;;;;9.60;2.30;;;;;;;14.81;58.46;100840.66;107633;1253;109410;-62
2023/10/23 01:36:35;;;;;;;8.10;2.00;;;;;;;14.83;58.66;100842.73;107431;1253;107789;-62
2023/10/23 01:39:04;;;;;;;7.10;1.80;;;;;;;14.91;58.61;100840.19;107645;1255;97931;-62
2023/10/23 01:41:33;;;;;;;15.20;3.30;;;;;;;14.96;58.69;100842.65;107599;1253;97947;-61
2023/10/23 01:44:02;;;;;;;12.00;2.40;;;;;;;15.03;58.64;100845.15;107650;1253;111090;-62
2023/10/23 01:46:30;;;;;;;6.10;1.80;;;;;;;15.14;58.63;100843.84;107607;1251;109916;-62
2023/10/23 01:48:59;;;;;;;8.20;1.80;;;;;;;15.27;58.40;100840.95;107627;1251;107856;-62
2023/10/23 01:51:27;;;;;;;8.70;1.80;;;;;;;15.45;57.96;100845.02;107589;1251;97852;-63
2023/10/23 01:53:56;;;;;;;9.20;2.30;;;;;;;15.65;57.45;100838.89;107694;1251;98450;-62
2023/10/23 01:56:24;;;;;;;10.50;2.20;;;;;;;15.78;57.06;100840.22;107460;1252;113455;-62
2023/10/23 01:58:53;;;;;;;10.50;2.20;;;;;;;15.87;56.60;100843.85;107648;1252;108877;-63
2023/10/23 02:01:22;;;;;;;10.50;2.30;;;;;;;15.93;56.28;100842.41;107439;1253;108239;-62
2023/10/23 02:03:50;;;;;;;6.00;2.00;;;;;;;15.95;56.08;100837.85;107610;1252;97842;-62
2023/10/23 02:06:19;;;;;;;6.70;1.90;;;;;;;15.96;56.10;100838.45;107641;1252;97700;-64
2023/10/23 02:08:47;;;;;;;6.80;1.60;;;;;;;15.95;56.08;100843.23;107598;1253;112683;-62
2023/10/23 02:11:16;;;;;;;9.40;1.80;;;;;;;15.92;56.05;100847.54;107616;1251;108437;-63
2023/10/23 02:13:44;;;;;;;4.90;1.80;;;;;;;15.86;56.09;100852.79;107586;1253;108459;-63
2023/10/23 02:16:12;;;;;;;9.60;3.00;;;;;;;15.79;56.13;100855.27;107598;1252;97866;-60
2023/10/23 02:18:41;;;;;;;12.20;2.50;;;;;;;15.74;56.27;100861.84;107446;1253;97926;-62
2023/10/23 02:21:10;;;;;;;11.40;3.00;;;;;;;15.67;56.27;100872.30;107619;1255;112356;-62
2023/10/23 02:23:40;;;;;;;12.60;2.50;;;;;;;15.62;56.24;100874.52;107547;1253;109391;-62
2023/10/23 02:26:25;;;;;;;8.20;2.70;;;;;;;15.57;56.39;100881.75;107632;1251;108586;-62
2023/10/23 02:28:53;;;;;;;11.30;2.40;;;;;;;15.51;56.54;100884.85;107604;1251;97839;-62
2023/10/23 02:31:22;;;;;;;14.70;2.50;;;;;;;15.48;56.57;100885.50;107633;1250;97719;-64
2023/10/23 02:33:51;;;;;;;5.90;2.30;;;;;;;15.46;56.59;100888.84;107624;1251;111325;-61
2023/10/23 02:36:19;;;;;;;13.90;2.80;;;;;;;15.42;56.87;100889.30;107634;1253;110565;-62
2023/10/23 02:38:48;;;;;;;11.10;2.10;;;;;;;15.38;56.84;100898.54;107603;1253;108731;-63
2023/10/23 02:41:17;;;;;;;12.20;2.70;;;;;;;15.32;56.94;100902.93;107704;1250;97860;-62
2023/10/23 02:43:47;;;;;;;8.40;2.60;;;;;;;15.27;57.18;100914.23;107726;1250;97708;-63
2023/10/23 02:46:15;;;;;;;14.20;2.50;;;;;;;15.17;57.24;100917.39;107564;1253;110560;-61
2023/10/23 02:48:43;;;;;;;13.30;2.60;;;;;;;15.10;57.59;100914.14;107636;1255;108780;-63
2023/10/23 02:51:12;;;;;;;12.00;2.40;;;;;;;15.03;58.09;100906.10;107622;1251;108110;-62
2023/10/23 02:53:41;;;;;;;21.40;3.30;;;;;;;14.95;58.74;100900.23;107577;1251;97845;-62
2023/10/23 02:56:13;;;;;;;5.00;1.90;;;;;;;14.89;59.05;100897.10;107645;1250;97759;-62
2023/10/23 02:58:41;;;;;;;13.80;2.50;;;;;;;14.87;58.86;100894.38;107449;1252;111119;-62
2023/10/23 03:01:22;;;;;;;8.80;2.40;;;;;;;14.89;58.52;100897.94;107480;1251;110438;-62
2023/10/23 03:03:51;;;;;;;11.10;2.50;;;;;;;14.92;58.49;100901.23;107608;1254;106833;-63
2023/10/23 03:06:20;;;;;;;12.40;2.90;;;;;;;14.93;58.47;100908.70;107634;1253;97849;-62
2023/10/23 03:08:48;;;;;;;14.80;3.10;;;;;;;14.90;58.41;100915.02;107624;1252;97926;-62
2023/10/23 03:11:16;;;;;;;20.70;3.10;;;;;;;14.83;58.36;100921.30;107661;1251;111418;-62
2023/10/23 03:13:45;;;;;;;13.70;4.00;;;;;;;14.75;58.47;100919.27;107648;1251;109714;-63
2023/10/23 03:16:17;;;;;;;22.50;2.90;;;;;;;14.67;58.50;100916.64;107581;1252;107535;-62
2023/10/23 03:18:45;;;;;;;12.30;2.60;;;;;;;14.61;58.83;100921.44;107590;1252;97912;-61
2023/10/23 03:21:14;;;;;;;15.30;2.80;;;;;;;14.53;59.04;100925.59;107663;1251;97715;-63
2023/10/23 03:23:42;;;;;;;16.60;2.50;;;;;;;14.47;59.23;100920.70;107569;1253;112208;-62
2023/10/23 03:26:10;;;;;;;15.50;3.00;;;;;;;14.39;59.31;100920.01;107459;1251;111066;-63
2023/10/23 03:28:38;;;;;;;17.10;3.20;;;;;;;14.33;59.71;100916.34;107566;1252;108922;-63
2023/10/23 03:31:06;;;;;;;23.40;3.30;;;;;;;14.29;60.02;100914.05;107611;1252;97853;-61
2023/10/23 03:33:35;;;;;;;11.70;3.30;;;;;;;14.27;60.18;100918.58;107484;1253;98016;-63
2023/10/23 03:36:04;;;;;;;13.70;2.80;;;;;;;14.23;60.33;100920.86;107652;1253;111697;-63
2023/10/23 03:38:32;;;;;;;14.50;4.20;;;;;;;14.20;60.41;100919.58;107659;1251;109025;-61
2023/10/23 03:41:00;;;;;;;23.60;5.80;;;;;;;14.17;60.66;100924.56;107596;1251;108799;-62
2023/10/23 03:43:29;;;;;;;16.10;3.20;;;;;;;14.15;60.82;100927.52;107609;1251;97815;-61
2023/10/23 03:46:02;;;;;;;24.10;7.00;;;;;;;14.12;60.88;100936.99;107655;1253;98378;-62
2023/10/23 03:48:34;;;;;;;23.30;4.00;;;;;;;14.09;61.00;100936.06;107687;1251;110917;-62
2023/10/23 03:51:03;;;;;;;18.20;3.40;;;;;;;14.06;61.24;100940.98;107532;1253;108515;-61
2023/10/23 03:53:31;;;;;;;13.20;3.20;;;;;;;14.04;61.18;100941.42;107598;1252;108045;-64
2023/10/23 03:56:00;;;;;;;11.20;3.00;;;;;;;14.00;61.18;100943.82;107619;1251;97854;-62
2023/10/23 03:58:29;;;;;;;18.90;3.30;;;;;;;13.94;61.15;100950.02;107543;1253;97929;-63
2023/10/23 04:00:57;;;;;;;17.10;3.20;;;;;;;13.86;61.17;100951.89;107657;1251;111670;-62
2023/10/23 04:03:26;;;;;;;10.10;2.30;;;;;;;13.76;61.30;100966.73;107633;1251;109508;-62
2023/10/23 04:05:54;;;;;;;10.50;2.10;;;;;;;13.66;63.13;100990.21;107631;1253;107012;-62
2023/10/23 04:08:22;;;;;;;12.70;3.30;;;;;;;13.55;63.32;100993.14;107596;1251;97849;-62
2023/10/23 04:10:50;;;;;;;13.80;4.20;;;;;;;13.46;63.25;100993.11;107633;1251;98486;-62
2023/10/23 04:13:18;;;;;;;10.50;2.50;;;;;;;13.42;63.18;100996.65;107597;1252;112362;-62
2023/10/23 04:15:59;;;;;;;18.30;3.40;;;;;;;13.40;63.42;100993.61;107623;1253;110180;-63
2023/10/23 04:18:28;;;;;;;9.60;2.50;;;;;;;13.38;63.52;100998.19;107597;1251;107865;-63
2023/10/23 04:21:07;;;;;;;29.60;4.70;;;;;;;13.35;63.44;100999.23;107614;1251;97916;-62
2023/10/23 04:23:37;;;;;;;34.80;6.20;;;;;;;13.31;63.44;100999.15;107648;1253;98367;-62
2023/10/23 04:26:06;;;;;;;35.90;6.60;;;;;;;13.30;63.32;100998.22;107605;1252;111314;-62
2023/10/23 04:28:36;;;;;;;221.60;15.50;;;;;;;13.30;63.42;100998.40;107612;1254;108385;-61
2023/10/23 04:31:05;;;;;;;250.80;14.90;;;;;;;13.30;63.43;101004.50;107651;1255;107624;-61
2023/10/23 04:33:34;;;;;;;36.90;5.60;;;;;;;13.30;63.48;101005.36;107638;1251;97874;-63
2023/10/23 04:36:02;;;;;;;36.30;4.90;;;;;;;13.31;63.51;101013.97;107590;1251;97844;-62
2023/10/23 04:38:31;;;;;;;45.90;4.40;;;;;;;13.30;63.52;101024.16;107675;1251;111747;-60
2023/10/23 04:40:59;;;;;;;47.50;6.90;;;;;;;13.28;63.72;101027.93;107606;1251;108165;-61
2023/10/23 04:43:28;;;;;;;35.40;5.70;;;;;;;13.27;63.72;101033.98;107600;1253;108181;-61
2023/10/23 04:45:57;;;;;;;29.20;4.20;;;;;;;13.27;63.72;101037.05;107638;1253;97868;-61
2023/10/23 04:48:26;;;;;;;40.50;5.10;;;;;;;13.27;63.96;101038.64;107604;1251;97819;-61
2023/10/23 04:51:02;;;;;;;38.10;4.80;;;;;;;13.27;64.19;101045.35;107581;1253;112243;-62
2023/10/23 04:53:30;;;;;;;41.70;5.10;;;;;;;13.26;64.15;101052.24;107605;1253;109468;-61
2023/10/23 04:55:58;;;;;;;47.10;4.40;;;;;;;13.26;64.34;101059.27;107593;1255;107055;-61
2023/10/23 04:58:29;;;;;;;31.80;3.90;;;;;;;13.26;64.56;101067.17;107549;1252;97830;-62
2023/10/23 05:00:59;;;;;;;43.00;4.00;;;;;;;13.26;64.58;101077.09;107618;1252;98370;-61
2023/10/23 05:03:28;;;;;;;68.00;7.00;;;;;;;13.26;64.87;101081.79;107601;1253;112862;-62
2023/10/23 05:05:56;;;;;;;55.70;13.70;;;;;;;13.27;64.83;101089.97;107610;1251;110470;-62
2023/10/23 05:08:24;;;;;;;22.40;4.80;;;;;;;13.33;65.04;101099.55;107595;1251;107655;-62
2023/10/23 05:10:52;;;;;;;43.90;5.00;;;;;;;13.41;65.08;101110.66;107555;1251;97825;-62
2023/10/23 05:13:21;;;;;;;33.60;4.70;;;;;;;13.47;64.98;101116.77;107551;1251;97910;-61
2023/10/23 05:15:49;;;;;;;48.10;4.80;;;;;;;13.54;64.97;101123.16;107593;1251;111216;-61
2023/10/23 05:18:17;;;;;;;29.90;4.50;;;;;;;13.61;65.11;101132.02;107591;1251;110057;-62
2023/10/23 05:20:45;;;;;;;18.20;3.80;;;;;;;13.71;65.18;101141.84;107562;1254;107682;-61
2023/10/23 05:23:14;;;;;;;19.50;3.40;;;;;;;13.83;65.39;101151.56;107595;1251;97928;-61
2023/10/23 05:25:47;;;;;;;37.90;3.90;;;;;;;13.92;64.95;101158.65;107608;1251;97742;-61
2023/10/23 05:28:15;;;;;;;34.10;3.90;;;;;;;13.98;64.61;101161.14;107641;1253;111862;-61
2023/10/23 05:30:44;;;;;;;35.80;4.60;;;;;;;14.02;64.60;101170.79;107589;1255;109438;-61
2023/10/23 05:33:12;;;;;;;22.60;3.60;;;;;;;14.07;64.61;101178.96;107583;1253;108974;-61
2023/10/23 05:35:40;;;;;;;26.70;4.00;;;;;;;14.13;64.48;101180.99;107560;1255;97840;-61
2023/10/23 05:38:09;;;;;;;36.60;3.40;;;;;;;14.18;64.40;101185.16;107645;1253;97734;-60
2023/10/23 05:40:37;;;;;;;33.90;3.80;;;;;;;14.22;64.27;101189.45;107594;1251;111792;-61
2023/10/23 05:43:06;;;;;;;37.50;4.00;;;;;;;14.28;64.26;101192.71;107556;1252;110375;-61
2023/10/23 05:45:37;;;;;;;19.90;4.50;;;;;;;14.34;64.29;101194.35;107545;1255;108494;-62
2023/10/23 05:48:05;;;;;;;23.40;3.20;;;;;;;14.40;64.24;101201.52;107596;1251;97935;-61
2023/10/23 05:50:34;;;;;;;16.60;3.30;;;;;;;14.43;64.01;101204.38;107624;1251;98172;-60
2023/10/23 05:53:02;;;;;;;22.40;3.90;;;;;;;14.46;63.94;101204.44;107556;1250;111492;-61
2023/10/23 05:55:34;;;;;;;23.10;3.70;;;;;;;14.49;63.72;101209.03;107545;1251;109240;-62
2023/10/23 05:58:02;;;;;;;16.90;3.30;;;;;;;14.52;63.73;101214.27;107541;1254;107366;-61
2023/10/23 06:00:31;;;;;;;17.40;3.20;;;;;;;14.55;63.70;101216.73;107575;1252;97871;-60
2023/10/23 06:02:59;;;;;;;20.40;2.80;;;;;;;14.56;63.72;101220.23;107551;1251;97708;-61
2023/10/23 06:05:27;;;;;;;19.40;3.50;;;;;;;14.56;63.61;101221.45;107589;1251;111158;-62
2023/10/23 06:07:56;;;;;;;12.20;3.40;;;;;;;14.58;63.49;101223.30;107596;1253;109767;-63
2023/10/23 06:10:24;;;;;;;12.70;2.90;;;;;;;14.59;63.50;101228.68;107571;1255;107809;-62
2023/10/23 06:12:52;;;;;;;12.60;2.70;;;;;;;14.56;63.52;101229.61;107549;1251;97908;-62
2023/10/23 06:15:21;;;;;;;6.90;2.30;;;;;;;14.55;63.42;101230.98;107524;1257;97710;-62
2023/10/23 06:17:49;;;;;;;12.80;2.90;;;;;;;14.56;63.24;101232.65;107644;1255;112098;-61
2023/10/23 06:20:17;;;;;;;6.40;2.10;;;;;;;14.58;63.39;101230.89;107514;1253;109048;-61
2023/10/23 06:22:46;;;;;;;16.90;2.70;;;;;;;14.62;63.20;101229.62;107618;1252;108302;-61
2023/10/23 06:25:14;;;;;;;11.40;2.40;;;;;;;14.65;63.04;101232.89;107526;1252;97853;-61
2023/10/23 06:27:43;;;;;;;11.90;3.50;;;;;;;14.69;62.98;101234.73;107590;1255;97855;-63
2023/10/23 06:30:12;;;;;;;8.70;2.60;;;;;;;14.73;62.84;101243.40;107598;1251;110801;-62
2023/10/23 06:32:40;;;;;;;8.80;3.20;;;;;;;14.74;63.07;101241.41;107624;1253;110265;-62
2023/10/23 06:35:08;;;;;;;15.20;2.70;;;;;;;14.76;62.98;101242.54;107632;1252;107153;-61
2023/10/23 06:37:37;;;;;;;12.10;2.40;;;;;;;14.77;63.00;101239.48;107583;1251;98060;-61
2023/10/23 06:40:07;;;;;;;11.20;2.80;;;;;;;14.79;63.16;101238.81;107610;1253;98372;-61
2023/10/23 06:42:35;;;;;;;6.50;1.80;;;;;;;14.81;63.06;101241.86;107586;1252;110555;-62
2023/10/23 06:45:03;;;;;;;5.80;1.90;;;;;;;14.84;63.29;101242.23;107591;1251;109622;-61
2023/10/23 06:47:32;;;;;;;5.70;1.90;;;;;;;14.90;63.30;101244.45;107583;1251;107774;-61
2023/10/23 06:50:02;;;;;;;10.00;2.30;;;;;;;14.94;63.30;101247.04;107602;1251;97868;-61
2023/10/23 06:52:32;;;;;;;4.10;1.60;;;;;;;14.99;63.25;101249.60;107621;1252;98490;-61
2023/10/23 06:55:00;;;;;;;3.30;1.60;;;;;;;15.06;63.27;101254.95;107611;1251;111836;-61
2023/10/23 06:57:28;;;;;;;5.30;1.80;;;;;;;15.12;63.23;101258.29;107592;1251;109749;-62
2023/10/23 06:59:57;;;;;;;10.90;1.80;;;;;;;15.18;63.06;101262.77;107610;1253;107466;-61
2023/10/23 07:02:25;;;;;;;6.00;2.00;;;;;;;15.23;63.13;101259.76;107496;1253;97769;-61
2023/10/23 07:04:53;;;;;;;4.80;1.70;;;;;;;15.29;62.95;101263.44;107618;1252;97724;-61
2023/10/23 07:07:21;;;;;;;7.20;1.60;;;;;;;15.37;62.91;101264.48;107548;1253;111652;-61
2023/10/23 07:10:00;;;;;;;5.00;1.60;;;;;;;15.45;62.64;101264.73;107606;1253;109979;-61
2023/10/23 07:12:29;;;;;;;7.20;2.40;;;;;;;15.53;62.74;101267.14;107668;1250;107911;-61
2023/10/23 07:14:57;;;;;;;8.00;3.30;;;;;;;15.61;62.45;101266.33;107660;1251;97914;-61
2023/10/23 07:17:25;;;;;;;14.50;3.60;;;;;;;15.67;62.03;101268.85;107600;1250;97719;-63
2023/10/23 07:19:54;;;;;;;13.30;4.00;;;;;;;15.70;61.11;101269.23;107515;1253;112189;-62
2023/10/23 07:22:22;;;;;;;18.60;3.70;;;;;;;15.68;60.68;101269.83;107527;1253;109916;-61
2023/10/23 07:24:54;;;;;;;8.00;3.40;;;;;;;15.69;60.60;101270.48;107558;1251;109511;-62
2023/10/23 07:27:22;;;;;;;12.20;3.50;;;;;;;15.73;60.55;101271.08;107588;1251;97829;-62
2023/10/23 07:29:51;;;;;;;14.30;3.80;;;;;;;15.79;60.56;101274.76;107648;1251;98392;-61
2023/10/23 07:32:20;;;;;;;11.40;4.20;;;;;;;15.85;60.50;101271.84;107602;1254;112566;-62
2023/10/23 07:34:48;;;;;;;21.50;4.80;;;;;;;15.91;60.48;101268.34;107647;1251;108602;-61
2023/10/23 07:37:18;;;;;;;19.60;5.20;;;;;;;15.98;60.32;101266.98;107592;1253;108079;-61
2023/10/23 07:39:47;;;;;;;15.80;5.60;;;;;;;16.07;60.07;101268.40;107414;1253;97845;-61
2023/10/23 07:42:16;;;;;;;12.00;5.40;;;;;;;16.16;59.91;101269.98;107570;1252;98499;-61
2023/10/23 07:44:45;;;;;;;12.30;5.60;;;;;;;16.24;59.72;101272.23;107552;1253;111392;-62
2023/10/23 07:47:13;;;;;;;16.10;5.20;;;;;;;16.32;59.53;101274.65;107545;1255;110068;-63
2023/10/23 07:49:43;;;;;;;12.90;5.80;;;;;;;16.42;59.17;101275.23;107556;1255;108568;-62
2023/10/23 07:52:12;;;;;;;23.90;5.70;;;;;;;16.50;58.39;101275.34;107572;1253;97891;-62
2023/10/23 07:54:40;;;;;;;19.10;5.50;;;;;;;16.56;58.10;101275.04;107528;1253;97818;-66
2023/10/23 07:57:09;;;;;;;12.00;5.00;;;;;;;16.63;57.72;101277.77;107567;1253;111279;-61
2023/10/23 07:59:37;;;;;;;13.40;5.00;;;;;;;16.72;57.69;101278.41;107578;1252;108641;-61
2023/10/23 08:02:05;;;;;;;17.50;4.90;;;;;;;16.81;57.72;101277.39;107548;1255;107381;-61
2023/10/23 08:04:34;;;;;;;12.10;3.50;;;;;;;16.90;57.18;101281.39;107558;1253;97826;-60
2023/10/23 08:07:02;;;;;;;9.90;3.40;;;;;;;16.96;56.92;101282.20;107580;1253;98438;-62
2023/10/23 08:09:31;;;;;;;10.80;3.80;;;;;;;17.06;56.80;101277.31;107599;1251;111633;-62
2023/10/23 08:11:59;;;;;;;8.50;3.10;;;;;;;17.15;56.30;101278.02;107533;1252;109835;-62
2023/10/23 08:14:27;;;;;;;11.30;3.60;;;;;;;17.29;56.42;101276.78;107540;1253;107306;-63
2023/10/23 08:16:55;;;;;;;11.20;3.10;;;;;;;17.51;56.32;101279.35;107510;1253;97837;-62
2023/10/23 08:19:24;;;;;;;12.80;3.50;;;;;;;17.74;55.95;101278.21;107614;1255;98009;-62
2023/10/23 08:21:52;;;;;;;8.80;3.20;;;;;;;17.92;55.50;101280.24;107640;1251;111124;-61
2023/10/23 08:24:21;;;;;;;8.20;3.10;;;;;;;18.09;54.88;101279.82;107620;1251;109278;-62
2023/10/23 08:26:50;;;;;;;9.00;3.60;;;;;;;18.21;54.74;101280.52;107545;1253;109305;-61
2023/10/23 08:29:18;;;;;;;10.50;3.50;;;;;;;18.34;53.69;101275.16;107589;1253;97834;-62
2023/10/23 08:31:47;;;;;;;10.40;3.40;;;;;;;18.42;53.57;101277.59;107631;1251;97717;-61
2023/10/23 08:34:15;;;;;;;15.20;4.00;;;;;;;18.61;53.80;101276.30;107588;1251;111963;-63
2023/10/23 08:36:43;;;;;;;8.10;3.60;;;;;;;18.76;53.08;101278.73;107556;1250;109102;-62
2023/10/23 08:39:12;;;;;;;10.40;3.60;;;;;;;18.91;52.63;101270.16;107504;1253;108340;-62
2023/10/23 08:41:40;;;;;;;14.10;3.90;;;;;;;19.06;51.75;101272.95;107607;1252;97822;-61
2023/10/23 08:44:10;;;;;;;15.10;5.10;;;;;;;19.18;51.96;101272.50;107606;1255;98391;-62
2023/10/23 08:46:40;;;;;;;9.90;3.00;;;;;;;19.37;51.49;101275.39;107556;1255;112172;-62
2023/10/23 08:49:08;;;;;;;6.10;3.00;;;;;;;19.55;51.33;101275.29;107540;1253;107731;-63
2023/10/23 08:51:43;;;;;;;7.70;3.40;;;;;;;19.86;51.00;101273.39;107566;1253;106091;-62
2023/10/23 08:54:19;;;;;;;9.70;3.00;;;;;;;20.49;50.35;101271.70;107551;1252;97744;-63
2023/10/23 08:56:56;;;;;;;7.20;3.40;;;;;;;21.25;48.99;101266.86;107609;1253;97817;-62
2023/10/23 08:59:25;;;;;;;10.70;3.30;;;;;;;21.94;47.09;101267.68;107602;1255;111923;-62
2023/10/23 09:01:55;;;;;;;7.80;3.20;;;;;;;22.62;45.77;101266.23;107618;1251;109234;-61
2023/10/23 09:04:29;;;;;;;8.60;3.30;;;;;;;23.12;44.75;101264.39;107609;1251;108496;-61
2023/10/23 09:06:59;;;;;;;11.10;3.10;;;;;;;23.41;43.32;101262.86;107507;1253;99408;-61
2023/10/23 09:09:28;;;;;;;7.30;3.00;;;;;;;24.00;43.40;101260.73;107615;1253;98611;-61
2023/10/23 09:11:57;;;;;;;11.20;3.00;;;;;;;24.48;42.69;101259.81;107472;1253;111935;-62
2023/10/23 09:14:35;;;;;;;14.10;3.40;;;;;;;24.52;39.71;101255.48;107428;1253;110706;-61
2023/10/23 09:17:04;;;;;;;10.20;2.80;;;;;;;24.22;39.83;101254.99;107506;1252;107667;-62
2023/10/23 09:19:36;;;;;;;8.90;2.70;;;;;;;24.52;39.82;101253.88;107585;1253;97804;-60
2023/10/23 09:22:06;;;;;;;9.50;2.30;;;;;;;25.05;38.36;101253.89;107506;1252;97833;-62
2023/10/23 09:24:37;;;;;;;7.50;2.80;;;;;;;25.58;37.54;101253.73;107615;1253;110469;-62
2023/10/23 09:27:05;;;;;;;10.10;2.50;;;;;;;26.18;37.50;101251.66;107553;1253;109476;-62
2023/10/23 09:29:34;;;;;;;9.70;3.10;;;;;;;26.99;36.80;101249.59;107478;1253;108749;-62
2023/10/23 09:32:05;;;;;;;5.70;2.70;;;;;;;27.66;35.49;101247.99;107496;1253;97834;-62
2023/10/23 09:34:40;;;;;;;9.00;2.70;;;;;;;28.21;33.80;101243.11;107502;1253;97704;-62
2023/10/23 09:37:09;;;;;;;11.60;3.30;;;;;;;28.56;33.15;101239.67;107613;1253;111408;-62
2023/10/23 09:39:39;;;;;;;9.00;2.70;;;;;;;29.03;34.62;101237.05;107591;1253;108770;-62
2023/10/23 09:42:09;;;;;;;7.50;3.70;;;;;;;29.48;32.21;101234.16;107466;1253;108378;-65
2023/10/23 09:44:39;;;;;;;9.50;3.30;;;;;;;29.94;33.16;101231.42;107347;1253;97680;-61
2023/10/23 09:47:09;;;;;;;13.70;2.80;;;;;;;30.32;30.52;101227.06;107458;1251;97826;-62
2023/10/23 09:49:41;;;;;;;9.80;3.10;;;;;;;30.26;30.01;101227.60;107585;1251;111807;-63
2023/10/23 09:52:11;;;;;;;7.70;2.40;;;;;;;30.56;31.02;101225.75;107451;1252;109033;-62
2023/10/23 09:54:43;;;;;;;5.80;2.20;;;;;;;30.98;30.53;101219.48;107462;1253;108012;-61
2023/10/23 09:57:14;;;;;;;9.70;2.20;;;;;;;31.46;29.25;101218.70;107454;1253;96844;-63
2023/10/23 09:59:52;;;;;;;7.30;1.90;;;;;;;31.98;29.28;101216.16;107526;1252;98363;-63
2023/10/23 10:02:24;;;;;;;2.60;1.30;;;;;;;32.36;28.06;101212.15;107546;1253;110842;-62
2023/10/23 10:05:05;;;;;;;6.80;1.70;;;;;;;32.75;27.91;101212.10;107418;1253;109685;-62
2023/10/23 10:07:35;;;;;;;10.90;1.90;;;;;;;33.14;27.16;101204.81;107567;1253;108485;-62
2023/10/23 10:10:05;;;;;;;4.90;1.60;;;;;;;33.26;27.13;101204.27;107424;1255;97793;-62
2023/10/23 10:12:37;;;;;;;9.40;2.00;;;;;;;33.62;26.45;101197.55;107069;1251;730724;-61
2023/10/23 10:15:12;;;;;;;6.90;1.60;;;;;;;33.81;26.32;101197.12;107668;1253;111697;-63
2023/10/23 10:17:42;;;;;;;2.90;1.30;;;;;;;34.09;24.25;101197.50;107618;1254;108744;-62
2023/10/23 10:20:12;;;;;;;2.40;1.40;;;;;;;33.89;24.29;101195.66;107499;1253;107859;-62
2023/10/23 10:22:43;;;;;;;6.30;1.60;;;;;;;33.53;24.71;101192.15;107513;1253;97976;-64
2023/10/23 10:25:13;;;;;;;5.00;1.50;;;;;;;33.62;25.39;101191.23;107625;1250;98338;-62
2023/10/23 10:27:41;;;;;;;4.90;1.50;;;;;;;33.88;24.54;101190.30;107523;1256;110600;-62
2023/10/23 10:30:41;;;;;;;6.50;1.50;;;;;;;34.17;24.09;101188.09;107496;1252;109869;-65
2023/10/23 10:33:15;;;;;;;9.20;1.40;;;;;;;34.41;24.16;101179.77;107471;1253;108787;-63
2023/10/23 10:36:10;;;;;;;4.70;1.60;;;;;;;34.63;23.42;101177.65;107531;1253;97825;-61
2023/10/23 10:38:41;;;;;;;7.50;1.50;;;;;;;34.80;23.98;101177.58;107596;1251;98472;-64
2023/10/23 10:41:18;;;;;;;5.30;1.10;;;;;;;35.18;23.85;101173.45;107440;1254;111765;-62
2023/10/23 10:43:51;;;;;;;5.90;1.50;;;;;;;35.69;23.18;101170.63;107484;1253;110905;-63
2023/10/23 10:46:26;;;;;;;11.50;2.00;;;;;;;35.99;22.69;101170.85;107559;1253;107106;-62
2023/10/23 10:48:55;;;;;;;5.20;1.50;;;;;;;36.39;22.35;101167.70;107525;1253;97710;-63
2023/10/23 10:51:26;;;;;;;3.50;1.30;;;;;;;36.56;20.80;101171.12;107511;1251;98448;-63
2023/10/23 10:53:58;;;;;;;9.10;1.70;;;;;;;36.28;20.92;101170.69;107583;1253;112077;-62
2023/10/23 10:56:27;;;;;;;9.50;2.00;;;;;;;36.23;21.47;101171.70;107553;1253;109214;-62
2023/10/23 10:59:02;;;;;;;2.90;1.60;;;;;;;36.46;21.39;101164.98;107511;1253;107931;-61
2023/10/23 11:01:31;;;;;;;8.20;1.50;;;;;;;36.47;21.30;101161.55;107494;1253;97823;-61
2023/10/23 11:04:00;;;;;;;3.20;1.70;;;;;;;36.68;20.92;101157.25;107621;1251;97729;-61
2023/10/23 11:06:29;;;;;;;4.00;1.40;;;;;;;36.64;21.04;101154.97;107574;1256;112194;-63
2023/10/23 11:08:58;;;;;;;2.90;1.10;;;;;;;36.75;20.69;101154.12;107575;1251;108761;-63
2023/10/23 11:11:28;;;;;;;6.40;1.40;;;;;;;36.80;20.55;101149.77;107455;1253;107516;-63
2023/10/23 11:13:59;;;;;;;7.20;1.70;;;;;;;36.70;20.42;101149.48;107414;1253;97736;-62
2023/10/23 11:16:30;;;;;;;5.10;1.70;;;;;;;36.66;20.33;101149.89;107577;1252;98383;-62
2023/10/23 11:19:00;;;;;;;3.30;1.60;;;;;;;36.41;19.69;101144.76;107588;1251;110829;-62